Time;durP1;ratioP1;P1;durP2;ratioP2;P2;SDS_P1;SDS_P2;PMS_P1;PMS_P2;Temp;Humidity;BMP_temperature;BMP_pressure;BME280_temperature;BME280_humidity;BME280_pressure;Samples;Min_cycle;Max_cycle;Signal;HPM_P1;HPM_P2
2022/01/14 00:01:48;;;;;;;19.92;4.18;;;6.50;99.90;;;;;;4965752;28;20023;-76
2022/01/14 00:04:14;;;;;;;16.15;3.90;;;6.50;99.90;;;;;;4966555;28;20027;-78
2022/01/14 00:06:40;;;;;;;5.28;3.22;;;6.50;99.90;;;;;;4964445;28;20425;-74
2022/01/14 00:09:09;;;;;;;7.45;3.45;;;6.50;99.90;;;;;;4964217;29;20035;-76
2022/01/14 00:11:53;;;;;;;11.68;4.15;;;6.50;99.90;;;;;;4966145;28;20030;-74
2022/01/14 00:14:22;;;;;;;8.75;3.78;;;6.50;99.90;;;;;;4965873;28;20032;-80
2022/01/14 00:16:49;;;;;;;16.02;5.13;;;6.50;99.90;;;;;;4965526;28;20027;-75
2022/01/14 00:19:16;;;;;;;7.03;3.92;;;6.50;99.90;;;;;;4964857;29;20034;-77
2022/01/14 00:21:44;;;;;;;8.43;3.50;;;6.50;99.90;;;;;;4963307;28;20034;-74
2022/01/14 00:24:25;;;;;;;14.32;4.15;;;6.50;99.90;;;;;;4963470;28;20424;-77
2022/01/14 00:32:15;;;;;;;7.78;3.88;;;6.50;99.90;;;;;;4969146;29;20074;-74
2022/01/14 00:34:41;;;;;;;10.70;3.63;;;6.50;99.90;;;;;;4969449;28;20023;-77
2022/01/14 00:37:07;;;;;;;8.88;4.18;;;6.50;99.90;;;;;;4967652;29;20147;-74
2022/01/14 00:39:33;;;;;;;12.40;4.72;;;6.50;99.90;;;;;;4968101;29;20027;-73
2022/01/14 00:41:59;;;;;;;8.70;3.10;;;6.50;99.90;;;;;;4969236;29;20031;-76
2022/01/14 00:44:24;;;;;;;9.98;4.47;;;6.50;99.90;;;;;;4968331;29;20050;-76
2022/01/14 00:46:51;;;;;;;10.15;4.07;;;6.40;99.90;;;;;;4968520;29;20058;-75
2022/01/14 00:49:20;;;;;;;11.95;4.28;;;6.40;99.90;;;;;;4969151;29;20069;-74
2022/01/14 00:51:48;;;;;;;15.23;4.82;;;6.40;99.90;;;;;;4968832;28;20369;-74
2022/01/14 00:54:15;;;;;;;20.40;4.80;;;6.40;99.90;;;;;;4967967;29;20035;-75
2022/01/14 00:59:14;;;;;;;13.82;5.22;;;6.40;99.90;;;;;;4968842;28;20094;-73
2022/01/14 01:01:48;;;;;;;8.02;3.88;;;6.40;99.90;;;;;;4967690;29;20403;-76
2022/01/14 01:04:16;;;;;;;19.17;5.38;;;6.40;99.90;;;;;;4968809;28;20031;-76
2022/01/14 01:06:44;;;;;;;19.38;5.95;;;6.40;99.90;;;;;;4968767;28;20036;-77
2022/01/14 01:09:12;;;;;;;8.27;3.88;;;6.40;99.90;;;;;;4967731;29;20042;-76
2022/01/14 01:11:46;;;;;;;12.48;4.45;;;6.40;99.90;;;;;;4968544;28;20070;-73
2022/01/14 01:14:18;;;;;;;14.43;4.28;;;6.40;99.90;;;;;;4969082;28;20058;-76
2022/01/14 01:16:44;;;;;;;26.00;5.28;;;6.40;99.90;;;;;;4968232;28;20077;-73
2022/01/14 01:19:12;;;;;;;20.25;4.60;;;6.40;99.90;;;;;;4968389;29;20038;-74
2022/01/14 01:21:38;;;;;;;11.45;4.53;;;6.40;99.90;;;;;;4968877;28;20480;-74
2022/01/14 01:24:05;;;;;;;8.40;4.00;;;6.40;99.90;;;;;;4968193;28;20055;-74
2022/01/14 01:26:35;;;;;;;17.70;5.10;;;6.40;99.90;;;;;;4967500;28;20353;-73
2022/01/14 01:31:40;;;;;;;26.08;3.95;;;6.50;99.90;;;;;;4967700;28;20054;-76
2022/01/14 01:34:10;;;;;;;9.82;3.47;;;6.40;99.90;;;;;;4968316;28;20082;-75
2022/01/14 01:36:38;;;;;;;19.60;5.32;;;6.50;99.90;;;;;;4966895;29;20047;-74
2022/01/14 01:39:09;;;;;;;19.42;5.40;;;6.50;99.90;;;;;;4967821;28;20086;-74
2022/01/14 01:41:37;;;;;;;13.32;5.00;;;6.40;99.90;;;;;;4968450;28;20035;-74
2022/01/14 01:44:06;;;;;;;14.38;3.90;;;6.50;99.90;;;;;;4968075;28;20043;-74
2022/01/14 01:46:33;;;;;;;12.00;4.85;;;6.50;99.90;;;;;;4966527;29;20063;-75
2022/01/14 01:48:59;;;;;;;10.98;4.10;;;6.50;99.90;;;;;;4966365;29;20054;-74
2022/01/14 01:51:24;;;;;;;11.63;4.85;;;6.50;99.90;;;;;;4967171;28;20035;-75
2022/01/14 01:53:50;;;;;;;8.52;3.83;;;6.50;99.90;;;;;;4972175;28;20511;-75
2022/01/14 01:56:16;;;;;;;15.00;5.28;;;6.40;99.90;;;;;;4968125;29;20047;-76
2022/01/14 01:58:43;;;;;;;22.02;5.82;;;6.40;99.90;;;;;;4967985;28;20035;-77
2022/01/14 02:01:09;;;;;;;18.08;4.85;;;6.40;99.90;;;;;;4967514;28;20019;-74
2022/01/14 02:03:36;;;;;;;9.30;4.47;;;6.40;99.90;;;;;;4967920;29;20031;-76
2022/01/14 02:06:03;;;;;;;14.60;4.47;;;6.40;99.90;;;;;;4966381;29;20031;-74
2022/01/14 02:08:29;;;;;;;7.78;3.78;;;6.40;99.90;;;;;;4967505;28;20055;-76
2022/01/14 02:10:55;;;;;;;24.02;5.35;;;6.40;99.90;;;;;;4968216;29;20091;-78
2022/01/14 02:13:21;;;;;;;28.20;5.53;;;6.40;99.90;;;;;;4966412;29;20050;-76
2022/01/14 02:16:00;;;;;;;14.35;5.15;;;6.40;99.90;;;;;;4966320;29;20472;-77
2022/01/14 02:23:53;;;;;;;11.93;4.95;;;6.30;99.90;;;;;;4967642;29;20062;-74
2022/01/14 02:26:23;;;;;;;13.95;3.83;;;6.40;99.90;;;;;;4967489;28;20038;-76
2022/01/14 02:28:50;;;;;;;17.35;3.97;;;6.40;99.90;;;;;;4965638;29;20043;-75
2022/01/14 02:31:17;;;;;;;8.48;4.60;;;6.40;99.90;;;;;;4967350;28;20082;-74
2022/01/14 02:33:45;;;;;;;8.30;4.50;;;6.40;99.90;;;;;;4965958;29;20399;-75
2022/01/14 02:36:13;;;;;;;8.32;4.03;;;6.40;99.90;;;;;;4967226;28;20349;-75
2022/01/14 02:38:38;;;;;;;10.52;4.75;;;6.40;99.90;;;;;;4967177;29;20035;-73
2022/01/14 02:41:04;;;;;;;9.95;4.97;;;6.40;99.90;;;;;;4967088;29;20031;-74
2022/01/14 02:43:30;;;;;;;20.27;4.25;;;6.40;99.90;;;;;;4965241;29;20038;-73
2022/01/14 02:45:57;;;;;;;11.20;5.38;;;6.40;99.90;;;;;;4965497;28;20031;-74
2022/01/14 02:48:27;;;;;;;14.15;4.95;;;6.40;99.90;;;;;;4967007;28;20027;-77
2022/01/14 02:51:13;;;;;;;10.40;4.22;;;6.30;99.90;;;;;;4966652;28;20365;-77
2022/01/14 02:56:10;;;;;;;9.25;4.88;;;6.40;99.90;;;;;;4967004;28;20031;-77
2022/01/14 02:58:38;;;;;;;23.45;5.85;;;6.30;99.90;;;;;;4966724;28;20468;-74
2022/01/14 03:01:08;;;;;;;11.35;5.30;;;6.30;99.90;;;;;;4966868;28;20122;-73
2022/01/14 03:03:34;;;;;;;15.57;5.65;;;6.30;99.90;;;;;;4966463;28;20031;-74
2022/01/14 03:06:01;;;;;;;10.32;4.20;;;6.40;99.90;;;;;;4981444;28;20034;-74
2022/01/14 03:08:27;;;;;;;7.53;4.15;;;6.40;99.90;;;;;;4966651;28;20059;-74
2022/01/14 03:11:09;;;;;;;18.38;5.57;;;6.40;99.90;;;;;;4973818;28;20032;-73
2022/01/14 03:13:35;;;;;;;11.90;4.28;;;6.40;99.90;;;;;;4965283;29;20046;-73
2022/01/14 03:16:02;;;;;;;13.15;5.40;;;6.50;99.90;;;;;;4966526;28;20054;-75
2022/01/14 03:18:44;;;;;;;17.10;5.25;;;6.50;99.90;;;;;;4966315;28;20030;-74
2022/01/14 03:21:12;;;;;;;16.13;5.55;;;6.40;99.90;;;;;;4966831;28;20023;-74
2022/01/14 03:23:46;;;;;;;14.63;5.47;;;6.40;99.90;;;;;;4965210;29;20447;-73
2022/01/14 03:26:15;;;;;;;25.33;6.25;;;6.40;99.90;;;;;;4966346;28;20099;-74
2022/01/14 03:28:40;;;;;;;15.50;4.85;;;6.40;99.90;;;;;;4964926;29;20062;-74
2022/01/14 03:31:07;;;;;;;9.95;4.97;;;6.50;99.90;;;;;;4966289;29;20119;-75
2022/01/14 03:33:34;;;;;;;18.70;5.47;;;6.40;99.90;;;;;;4964748;29;20077;-75
2022/01/14 03:36:00;;;;;;;13.48;5.15;;;6.40;99.90;;;;;;4965033;29;20033;-74
2022/01/14 03:38:26;;;;;;;12.30;4.97;;;6.50;99.90;;;;;;4966198;28;20078;-76
2022/01/14 03:40:52;;;;;;;8.63;4.10;;;6.50;99.90;;;;;;4965938;29;20035;-75
2022/01/14 03:43:18;;;;;;;19.92;5.38;;;6.50;99.90;;;;;;4966209;28;20027;-78
2022/01/14 03:45:45;;;;;;;7.55;3.90;;;6.40;99.90;;;;;;4964950;29;20031;-75
2022/01/14 03:48:11;;;;;;;13.80;4.22;;;6.50;99.90;;;;;;4964891;29;20059;-74
2022/01/14 03:50:37;;;;;;;13.32;4.18;;;6.40;99.90;;;;;;4966179;29;20039;-74
2022/01/14 03:53:03;;;;;;;17.90;3.80;;;6.40;99.90;;;;;;4966101;28;20125;-77
2022/01/14 03:55:29;;;;;;;17.52;4.93;;;6.40;99.90;;;;;;4965786;28;20031;-74
2022/01/14 03:57:54;;;;;;;10.68;5.20;;;6.40;99.90;;;;;;4965360;28;20038;-76
2022/01/14 04:00:22;;;;;;;16.83;5.13;;;6.50;99.90;;;;;;4968877;29;20032;-73
2022/01/14 04:02:47;;;;;;;24.45;4.53;;;6.50;99.90;;;;;;4969766;29;20028;-73
2022/01/14 04:05:14;;;;;;;18.83;3.97;;;6.40;99.90;;;;;;4969974;29;20078;-74
2022/01/14 04:07:41;;;;;;;11.68;4.00;;;6.40;99.90;;;;;;4970409;28;20358;-74
2022/01/14 04:10:10;;;;;;;14.60;5.55;;;6.50;99.90;;;;;;4967992;29;20071;-74
2022/01/14 04:13:02;;;;;;;9.82;4.07;;;6.40;99.90;;;;;;4969768;28;20027;-76
2022/01/14 04:15:36;;;;;;;8.38;3.78;;;6.40;99.90;;;;;;4969397;29;20039;-73
2022/01/14 04:18:17;;;;;;;17.52;4.22;;;6.50;99.90;;;;;;4970151;28;20055;-73
2022/01/14 04:20:50;;;;;;;16.77;3.65;;;6.50;99.90;;;;;;4970112;28;20401;-74
2022/01/14 04:23:22;;;;;;;8.48;4.45;;;6.50;99.90;;;;;;4969463;28;20031;-73
2022/01/14 04:25:51;;;;;;;6.43;3.42;;;6.40;99.90;;;;;;4969458;28;20032;-74
2022/01/14 04:28:18;;;;;;;15.90;5.30;;;6.40;99.90;;;;;;4969717;28;20027;-73
2022/01/14 04:30:54;;;;;;;12.43;4.63;;;6.40;99.90;;;;;;4967460;29;20404;-74
2022/01/14 04:33:21;;;;;;;8.52;3.85;;;6.40;99.90;;;;;;4969547;28;20019;-73
2022/01/14 04:35:46;;;;;;;9.73;3.58;;;6.40;99.90;;;;;;4969685;28;20020;-74
2022/01/14 04:38:13;;;;;;;12.32;5.03;;;6.40;99.90;;;;;;4969300;28;20066;-74
2022/01/14 04:40:39;;;;;;;15.02;4.50;;;6.30;99.90;;;;;;4968086;29;20495;-76
2022/01/14 04:43:07;;;;;;;11.43;4.47;;;6.30;99.90;;;;;;4967707;29;20034;-75
2022/01/14 04:48:04;;;;;;;20.40;3.97;;;6.30;99.90;;;;;;4969325;28;20081;-74
2022/01/14 04:50:30;;;;;;;17.73;4.45;;;6.30;99.90;;;;;;4968986;28;20035;-74
2022/01/14 04:52:56;;;;;;;19.95;4.15;;;6.30;99.90;;;;;;4968854;28;20050;-79
2022/01/14 04:55:23;;;;;;;12.52;4.32;;;6.30;99.90;;;;;;4968990;29;20067;-74
2022/01/14 04:57:52;;;;;;;13.07;4.50;;;6.40;99.90;;;;;;4968838;28;20031;-75
2022/01/14 05:00:21;;;;;;;16.95;3.58;;;6.30;99.90;;;;;;4967657;29;20023;-76
2022/01/14 05:02:48;;;;;;;10.82;4.22;;;6.30;99.90;;;;;;4967463;29;20038;-77
2022/01/14 05:05:17;;;;;;;8.35;3.63;;;6.40;99.90;;;;;;4968919;28;20027;-78
2022/01/14 05:07:46;;;;;;;9.10;4.65;;;6.40;99.90;;;;;;4967742;29;20031;-75
2022/01/14 05:10:22;;;;;;;20.25;4.55;;;6.40;99.90;;;;;;4968485;28;20490;-77
2022/01/14 05:12:49;;;;;;;16.67;4.15;;;6.40;99.90;;;;;;4968480;28;20038;-73
2022/01/14 05:15:17;;;;;;;13.05;4.82;;;6.30;99.90;;;;;;4968625;29;20032;-75
2022/01/14 05:17:44;;;;;;;7.15;4.25;;;6.40;99.90;;;;;;4967294;28;20061;-74
2022/01/14 05:20:10;;;;;;;17.00;4.43;;;6.40;99.90;;;;;;4967384;29;20030;-73
2022/01/14 05:22:36;;;;;;;8.45;3.83;;;6.40;99.90;;;;;;4968718;28;20019;-74
2022/01/14 05:25:03;;;;;;;14.25;4.53;;;6.40;99.90;;;;;;4967992;29;20504;-73
2022/01/14 05:27:29;;;;;;;10.88;4.97;;;6.40;99.90;;;;;;4968589;28;20106;-75
2022/01/14 05:29:54;;;;;;;14.73;5.68;;;6.40;99.90;;;;;;4966822;29;20474;-77
2022/01/14 05:32:22;;;;;;;14.63;4.50;;;6.40;99.90;;;;;;4968260;29;20043;-75
2022/01/14 05:34:48;;;;;;;18.92;5.20;;;6.40;99.90;;;;;;4968495;28;20114;-73
2022/01/14 05:37:15;;;;;;;19.27;5.40;;;6.40;99.90;;;;;;4968604;28;20086;-78
2022/01/14 05:39:42;;;;;;;19.88;4.32;;;6.40;99.90;;;;;;4966740;29;20035;-74
2022/01/14 05:42:09;;;;;;;14.40;5.60;;;6.40;99.90;;;;;;4968347;28;20509;-73
2022/01/14 05:44:35;;;;;;;9.23;4.53;;;6.40;99.90;;;;;;4966797;29;20034;-75
2022/01/14 05:47:01;;;;;;;25.92;5.05;;;6.40;99.90;;;;;;4967469;28;20054;-74
2022/01/14 05:49:28;;;;;;;11.32;5.03;;;6.40;99.90;;;;;;4967984;29;20039;-74
2022/01/14 05:51:54;;;;;;;21.73;5.15;;;6.40;99.90;;;;;;4967598;28;20472;-74
2022/01/14 05:54:21;;;;;;;12.15;5.82;;;6.40;99.90;;;;;;4967633;28;20027;-78
2022/01/14 05:56:47;;;;;;;16.38;5.05;;;6.40;99.90;;;;;;4968179;28;20460;-73
2022/01/14 05:59:13;;;;;;;14.25;4.78;;;6.40;99.90;;;;;;4968011;28;20074;-74
2022/01/14 06:01:39;;;;;;;17.70;5.80;;;6.40;99.90;;;;;;4967398;28;20031;-74
2022/01/14 06:04:06;;;;;;;10.73;4.65;;;6.40;99.90;;;;;;4967739;28;20035;-74
2022/01/14 06:06:34;;;;;;;13.13;5.05;;;6.50;99.90;;;;;;4967565;28;20027;-73
2022/01/14 06:09:00;;;;;;;17.98;5.28;;;6.40;99.90;;;;;;4966738;28;20110;-75
2022/01/14 06:11:26;;;;;;;17.83;5.03;;;6.40;99.90;;;;;;4967239;28;20078;-76
2022/01/14 06:13:53;;;;;;;11.75;4.78;;;6.40;99.90;;;;;;4967177;28;20031;-75
2022/01/14 06:16:19;;;;;;;20.90;6.35;;;6.40;99.90;;;;;;4966275;29;20031;-74
2022/01/14 06:18:46;;;;;;;16.77;5.88;;;6.40;99.90;;;;;;4967880;29;20033;-74
2022/01/14 06:21:12;;;;;;;17.80;5.03;;;6.40;99.90;;;;;;4965442;28;20038;-73
2022/01/14 06:23:37;;;;;;;12.35;5.45;;;6.40;99.90;;;;;;4967166;28;20435;-75
2022/01/14 06:26:04;;;;;;;17.05;5.80;;;6.40;99.90;;;;;;4967028;28;20044;-73
2022/01/14 06:28:30;;;;;;;15.30;5.40;;;6.40;99.90;;;;;;4966541;28;20027;-75
2022/01/14 06:30:55;;;;;;;19.02;5.90;;;6.40;99.90;;;;;;4965871;28;20099;-74
2022/01/14 06:33:21;;;;;;;12.05;4.95;;;6.40;99.90;;;;;;4967478;29;20035;-74
2022/01/14 06:35:50;;;;;;;43.58;5.25;;;6.40;99.90;;;;;;4966852;29;20427;-75
2022/01/14 06:38:18;;;;;;;10.20;5.05;;;6.40;99.90;;;;;;4966172;29;20042;-74
2022/01/14 06:40:46;;;;;;;21.08;5.28;;;6.40;99.90;;;;;;4965376;29;20031;-74
2022/01/14 06:43:13;;;;;;;30.00;7.32;;;6.40;99.90;;;;;;4964387;29;20122;-76
2022/01/14 06:45:39;;;;;;;22.50;6.50;;;6.40;99.90;;;;;;4965881;28;20031;-75
2022/01/14 06:48:05;;;;;;;18.13;6.05;;;6.40;99.90;;;;;;4976503;28;20031;-77
2022/01/14 06:50:34;;;;;;;16.05;5.78;;;6.40;99.90;;;;;;4953757;29;20050;-75
2022/01/14 06:53:00;;;;;;;16.20;5.75;;;6.40;99.90;;;;;;4964463;29;20470;-75
2022/01/14 06:55:26;;;;;;;16.20;4.43;;;6.40;99.90;;;;;;4970836;28;20038;-76
2022/01/14 06:57:52;;;;;;;17.25;4.97;;;6.50;99.90;;;;;;4964323;28;20042;-76
2022/01/14 07:00:20;;;;;;;17.30;5.63;;;6.40;99.90;;;;;;4965461;29;20030;-75
2022/01/14 07:02:46;;;;;;;12.73;5.75;;;6.50;99.90;;;;;;4965835;29;20031;-75
2022/01/14 07:05:12;;;;;;;18.23;5.60;;;6.50;99.90;;;;;;4965111;29;20479;-77
2022/01/14 07:07:39;;;;;;;28.08;5.93;;;6.50;99.90;;;;;;4965619;28;20534;-78
2022/01/14 07:10:06;;;;;;;19.08;5.53;;;6.50;99.90;;;;;;4965628;28;20070;-76
2022/01/14 07:12:36;;;;;;;22.65;6.20;;;6.50;99.90;;;;;;4966454;28;20104;-75
2022/01/14 07:15:08;;;;;;;13.93;5.47;;;6.50;99.90;;;;;;4964919;28;20042;-77
2022/01/14 07:17:34;;;;;;;17.38;6.95;;;6.50;99.90;;;;;;4966408;28;20110;-75
2022/01/14 07:20:06;;;;;;;26.77;6.80;;;6.50;99.90;;;;;;4965257;29;20460;-77
2022/01/14 07:22:31;;;;;;;24.73;5.57;;;6.40;99.90;;;;;;4961549;29;20119;-75
2022/01/14 07:24:58;;;;;;;26.55;5.75;;;6.40;99.90;;;;;;4956127;29;20034;-76
2022/01/14 07:27:24;;;;;;;11.05;4.95;;;6.50;99.90;;;;;;4964322;28;20039;-76
2022/01/14 07:29:50;;;;;;;13.15;5.10;;;6.50;99.90;;;;;;4964585;29;20039;-76
2022/01/14 07:32:16;;;;;;;12.30;4.57;;;6.50;99.90;;;;;;4964900;28;20062;-76
2022/01/14 07:34:45;;;;;;;17.92;5.50;;;6.50;99.90;;;;;;4964615;29;20539;-75
2022/01/14 07:37:11;;;;;;;13.55;6.32;;;6.50;99.90;;;;;;4965877;28;20042;-76
2022/01/14 07:39:37;;;;;;;13.25;4.85;;;6.50;99.90;;;;;;4966266;29;20031;-75
2022/01/14 07:42:04;;;;;;;16.45;6.07;;;6.50;99.90;;;;;;4964724;29;20031;-75
2022/01/14 07:44:29;;;;;;;17.70;4.43;;;6.50;99.90;;;;;;4965581;28;20037;-73
2022/01/14 07:46:55;;;;;;;13.15;5.15;;;6.50;99.90;;;;;;4965515;28;20110;-75
2022/01/14 07:49:21;;;;;;;17.67;5.13;;;6.50;99.90;;;;;;4966092;29;20039;-76
2022/01/14 07:51:48;;;;;;;10.93;4.78;;;6.50;99.90;;;;;;4965879;28;20067;-76
2022/01/14 07:54:14;;;;;;;10.43;4.55;;;6.50;99.90;;;;;;4974476;28;20055;-76
2022/01/14 07:56:45;;;;;;;27.30;5.07;;;6.60;99.90;;;;;;4970557;28;20541;-76
2022/01/14 07:59:15;;;;;;;8.63;3.83;;;6.60;99.90;;;;;;4964862;29;20032;-76
2022/01/14 08:01:43;;;;;;;11.35;4.72;;;6.60;99.90;;;;;;4964701;28;20151;-75
2022/01/14 08:04:09;;;;;;;19.20;5.97;;;6.60;99.90;;;;;;4966665;29;20062;-74
2022/01/14 08:06:38;;;;;;;13.70;5.00;;;6.60;99.90;;;;;;4967261;29;20027;-75
2022/01/14 08:09:04;;;;;;;26.98;6.22;;;6.60;99.90;;;;;;4965292;28;20046;-77
2022/01/14 08:11:29;;;;;;;12.23;4.93;;;6.60;99.90;;;;;;4963229;29;20031;-75
2022/01/14 08:13:55;;;;;;;20.30;5.93;;;6.60;99.90;;;;;;4956399;29;20027;-76
2022/01/14 08:16:21;;;;;;;14.40;4.25;;;6.60;99.90;;;;;;4958371;29;20047;-75
2022/01/14 08:18:47;;;;;;;11.77;5.05;;;6.70;99.90;;;;;;4965314;29;20392;-75
2022/01/14 08:21:16;;;;;;;11.68;5.30;;;6.70;99.90;;;;;;4965493;28;20039;-76
2022/01/14 08:23:42;;;;;;;13.18;5.20;;;6.80;99.90;;;;;;4966165;28;20030;-77
2022/01/14 08:26:08;;;;;;;23.90;5.90;;;6.70;99.90;;;;;;4965067;29;20468;-74
2022/01/14 08:28:34;;;;;;;25.95;5.65;;;6.80;99.90;;;;;;4963349;29;20042;-75
2022/01/14 08:30:59;;;;;;;9.48;4.97;;;6.80;99.90;;;;;;4965236;29;20059;-75
2022/01/14 08:33:25;;;;;;;15.73;4.40;;;6.70;99.90;;;;;;4964919;28;20173;-77
2022/01/14 08:35:51;;;;;;;11.95;4.70;;;6.80;99.90;;;;;;4973943;28;20109;-75
2022/01/14 08:38:17;;;;;;;11.68;4.80;;;6.80;99.90;;;;;;4972071;28;20574;-76
2022/01/14 08:40:42;;;;;;;25.05;3.85;;;6.80;99.90;;;;;;4962507;29;20051;-77
2022/01/14 08:43:08;;;;;;;19.15;4.88;;;6.80;99.90;;;;;;4963099;28;20039;-76
2022/01/14 08:45:34;;;;;;;14.38;4.68;;;6.80;99.90;;;;;;4966284;29;20034;-75
2022/01/14 08:48:00;;;;;;;9.40;4.15;;;6.80;99.90;;;;;;4965021;28;20058;-75
2022/01/14 08:50:30;;;;;;;10.77;4.70;;;6.80;99.90;;;;;;4967985;29;20035;-75
2022/01/14 08:52:58;;;;;;;14.13;5.18;;;6.80;99.90;;;;;;4968400;28;20031;-75
2022/01/14 08:55:24;;;;;;;10.23;3.67;;;6.80;99.90;;;;;;4967076;28;20126;-75
2022/01/14 08:57:50;;;;;;;8.65;3.83;;;6.90;99.90;;;;;;4964993;29;20511;-77
2022/01/14 09:00:18;;;;;;;8.55;3.72;;;6.90;99.90;;;;;;4966315;29;20042;-75
2022/01/14 09:02:45;;;;;;;9.32;3.95;;;6.90;99.90;;;;;;4967838;28;20031;-77
2022/01/14 09:05:11;;;;;;;18.42;4.63;;;6.90;99.90;;;;;;4968728;28;20046;-76
2022/01/14 09:07:37;;;;;;;8.82;4.13;;;6.90;99.90;;;;;;4967178;28;20030;-75
2022/01/14 09:10:04;;;;;;;14.05;3.67;;;6.80;99.90;;;;;;4966023;28;20106;-76
2022/01/14 09:12:30;;;;;;;7.00;3.47;;;6.90;99.90;;;;;;4965733;29;20023;-74
2022/01/14 09:14:56;;;;;;;6.68;3.75;;;6.90;99.90;;;;;;4966919;29;20411;-75
2022/01/14 09:17:22;;;;;;;8.10;3.85;;;6.90;99.90;;;;;;4964443;28;20033;-76
2022/01/14 09:19:52;;;;;;;7.00;3.83;;;6.90;99.90;;;;;;4967304;29;20040;-75
2022/01/14 09:22:19;;;;;;;20.70;3.85;;;6.90;99.90;;;;;;4966289;28;20050;-73
2022/01/14 09:24:49;;;;;;;31.65;4.60;;;7.00;99.90;;;;;;4964207;28;20046;-74
2022/01/14 09:27:17;;;;;;;8.98;3.83;;;7.00;99.90;;;;;;4967969;28;20038;-74
2022/01/14 09:29:45;;;;;;;18.20;4.93;;;7.00;99.90;;;;;;4967477;29;20043;-75
2022/01/14 09:32:10;;;;;;;17.05;3.92;;;7.10;99.90;;;;;;4965119;29;20059;-73
2022/01/14 09:34:37;;;;;;;17.23;4.97;;;7.10;99.90;;;;;;4967602;29;20055;-73
2022/01/14 09:37:03;;;;;;;14.25;3.60;;;7.10;99.90;;;;;;4967798;28;20046;-76
2022/01/14 09:39:31;;;;;;;15.07;3.58;;;7.10;99.90;;;;;;4966753;29;20028;-74
2022/01/14 09:41:58;;;;;;;6.97;2.92;;;7.10;99.90;;;;;;4967099;29;20023;-75
2022/01/14 09:44:23;;;;;;;15.05;4.65;;;7.10;99.90;;;;;;4966529;29;20031;-75
2022/01/14 09:46:50;;;;;;;22.55;3.35;;;7.10;99.90;;;;;;4967124;29;20041;-74
2022/01/14 09:49:17;;;;;;;5.60;1.88;;;7.10;99.90;;;;;;4966424;28;20451;-76
2022/01/14 09:51:43;;;;;;;7.20;3.17;;;7.10;99.90;;;;;;4965154;28;20031;-75
2022/01/14 09:54:10;;;;;;;5.97;2.72;;;7.10;99.90;;;;;;4984896;28;20034;-75
2022/01/14 09:56:37;;;;;;;10.70;2.92;;;7.10;99.90;;;;;;4977107;28;20086;-76
2022/01/14 09:59:03;;;;;;;12.70;4.10;;;7.10;99.90;;;;;;4967747;28;20035;-74
2022/01/14 10:01:37;;;;;;;20.70;4.00;;;7.10;99.90;;;;;;4967887;28;20051;-76
2022/01/14 10:04:04;;;;;;;5.93;3.03;;;7.10;99.90;;;;;;4967595;28;20023;-75
2022/01/14 10:06:52;;;;;;;9.05;3.65;;;7.20;99.90;;;;;;4967730;28;20058;-75
2022/01/14 10:09:34;;;;;;;19.88;3.78;;;7.20;99.90;;;;;;4966426;29;20500;-75
2022/01/14 10:12:20;;;;;;;10.05;3.65;;;7.20;99.90;;;;;;4965633;29;20035;-75
2022/01/14 10:15:08;;;;;;;6.05;2.45;;;7.20;99.90;;;;;;4967293;28;20034;-75
2022/01/14 10:17:43;;;;;;;9.43;3.30;;;7.20;99.90;;;;;;4965839;29;20443;-76
2022/01/14 10:20:11;;;;;;;13.23;3.72;;;7.30;99.90;;;;;;4966498;28;20046;-75
2022/01/14 10:22:44;;;;;;;16.65;3.33;;;7.30;99.90;;;;;;4965587;29;20032;-75
2022/01/14 10:25:14;;;;;;;8.65;3.10;;;7.30;99.90;;;;;;4967255;28;20031;-75
2022/01/14 10:27:51;;;;;;;21.67;3.83;;;7.30;99.90;;;;;;4965363;28;20027;-74
2022/01/14 10:30:33;;;;;;;6.72;2.58;;;7.30;99.90;;;;;;4957958;29;20039;-76
2022/01/14 10:33:03;;;;;;;6.38;2.58;;;7.30;99.90;;;;;;4947230;29;20048;-76
2022/01/14 10:35:34;;;;;;;21.63;3.15;;;7.30;99.90;;;;;;4948248;29;20034;-76
2022/01/14 10:38:03;;;;;;;11.77;3.13;;;7.40;99.90;;;;;;4946542;29;20027;-75
2022/01/14 10:40:30;;;;;;;9.70;3.15;;;7.40;99.90;;;;;;4947711;29;20091;-75
2022/01/14 10:43:03;;;;;;;15.80;3.58;;;7.30;99.90;;;;;;4954722;29;20082;-75
2022/01/14 10:45:29;;;;;;;11.63;2.85;;;7.40;99.90;;;;;;4966805;28;20106;-77
2022/01/14 10:47:57;;;;;;;10.60;3.10;;;7.40;99.90;;;;;;4966920;28;20032;-76
2022/01/14 10:50:45;;;;;;;17.25;3.15;;;7.40;99.90;;;;;;4965285;29;20047;-78
2022/01/14 10:53:17;;;;;;;11.98;4.25;;;7.30;99.90;;;;;;4967030;28;20023;-75
2022/01/14 10:55:49;;;;;;;13.65;3.70;;;7.30;99.90;;;;;;4965776;29;20031;-77
2022/01/14 10:58:23;;;;;;;8.88;3.22;;;7.40;99.90;;;;;;4967017;28;20087;-76
2022/01/14 11:00:55;;;;;;;18.25;3.50;;;7.40;99.90;;;;;;4964776;29;20043;-75
2022/01/14 11:03:39;;;;;;;6.18;3.00;;;7.40;99.90;;;;;;4964216;29;20039;-74
2022/01/14 11:06:44;;;;;;;16.35;4.18;;;7.30;99.90;;;;;;4965228;29;20142;-74
2022/01/14 11:09:22;;;;;;;11.73;3.10;;;7.40;99.90;;;;;;4964191;29;20066;-77
2022/01/14 11:11:51;;;;;;;9.63;2.97;;;7.40;99.90;;;;;;4964298;29;20062;-78
2022/01/14 11:14:17;;;;;;;14.32;4.03;;;7.40;99.90;;;;;;4964690;29;20070;-77
2022/01/14 11:16:46;;;;;;;10.52;2.63;;;7.40;99.90;;;;;;4966186;28;20031;-78
2022/01/14 11:19:14;;;;;;;8.15;3.83;;;7.40;99.90;;;;;;4963271;29;20435;-77
2022/01/14 11:24:47;;;;;;;;;;;;;;;;;;;;;
2022/01/14 11:27:16;;;;;;;19.95;3.88;;;7.40;99.90;;;;;;4970591;28;20118;-76
2022/01/14 11:29:48;;;;;;;11.60;4.18;;;7.50;99.90;;;;;;4967804;28;20035;-77
2022/01/14 11:32:18;;;;;;;8.02;3.25;;;7.50;99.90;;;;;;4963924;29;20078;-77
2022/01/14 11:34:47;;;;;;;5.78;2.85;;;7.50;99.90;;;;;;4964398;29;20597;-77
2022/01/14 11:37:30;;;;;;;13.80;3.80;;;7.40;99.90;;;;;;4964739;29;20031;-77
2022/01/14 11:40:03;;;;;;;11.60;3.72;;;7.50;99.90;;;;;;4965613;28;20031;-76
2022/01/14 11:42:50;;;;;;;11.90;4.03;;;7.50;99.90;;;;;;4965351;28;20419;-76
2022/01/14 11:45:20;;;;;;;24.15;4.30;;;7.50;99.90;;;;;;4964491;28;20032;-76
2022/01/14 11:47:51;;;;;;;8.52;3.35;;;7.50;99.90;;;;;;4965634;28;20024;-77
2022/01/14 11:50:24;;;;;;;11.85;3.78;;;7.50;99.90;;;;;;4964883;29;20515;-75
2022/01/14 11:52:52;;;;;;;10.27;4.07;;;7.40;99.90;;;;;;4964519;29;20145;-77
2022/01/14 11:55:21;;;;;;;12.95;3.42;;;7.30;99.90;;;;;;4963490;28;20039;-77
2022/01/14 11:57:52;;;;;;;12.18;2.97;;;7.40;99.90;;;;;;4965657;29;20034;-77
2022/01/14 12:00:42;;;;;;;14.85;3.88;;;7.30;99.90;;;;;;4965474;28;20039;-77
2022/01/14 12:03:15;;;;;;;11.18;3.90;;;7.30;99.90;;;;;;4964646;29;20043;-76
2022/01/14 12:06:07;;;;;;;11.43;3.88;;;7.30;99.90;;;;;;4964579;29;20490;-75
2022/01/14 12:08:35;;;;;;;14.02;3.65;;;7.30;99.90;;;;;;4965297;28;20651;-77
2022/01/14 12:11:07;;;;;;;12.85;3.80;;;7.40;99.90;;;;;;4964752;29;20031;-75
2022/01/14 12:13:55;;;;;;;12.40;4.05;;;7.40;99.90;;;;;;4964734;29;20050;-79
2022/01/14 12:18:58;;;;;;;15.18;4.65;;;7.30;99.90;;;;;;4966848;28;20062;-77
2022/01/14 12:21:42;;;;;;;15.75;4.55;;;7.30;99.90;;;;;;4969449;29;20031;-78
2022/01/14 12:24:17;;;;;;;9.55;4.13;;;7.40;99.90;;;;;;4969858;28;20783;-77
2022/01/14 12:27:04;;;;;;;10.50;4.35;;;7.30;99.90;;;;;;4969629;29;20058;-76
2022/01/14 12:29:38;;;;;;;24.00;4.47;;;7.30;99.90;;;;;;4969856;28;20039;-76
2022/01/14 12:32:18;;;;;;;13.80;4.78;;;7.30;99.90;;;;;;4968104;29;20499;-75
2022/01/14 12:34:56;;;;;;;19.25;4.88;;;7.30;99.90;;;;;;4969860;28;20027;-78
2022/01/14 12:37:32;;;;;;;14.73;5.65;;;7.30;99.90;;;;;;4969961;28;20023;-76
2022/01/14 12:40:10;;;;;;;16.08;5.32;;;7.40;99.90;;;;;;4969743;29;20094;-77
2022/01/14 12:42:37;;;;;;;12.65;4.38;;;7.40;99.90;;;;;;4969054;28;20050;-75
2022/01/14 12:45:05;;;;;;;14.63;4.50;;;7.40;99.90;;;;;;4968175;29;20031;-74
2022/01/14 12:47:34;;;;;;;11.88;5.07;;;7.40;99.90;;;;;;4969474;28;20031;-74
2022/01/14 12:50:13;;;;;;;15.25;5.30;;;7.50;99.90;;;;;;4969074;28;20118;-76
2022/01/14 12:52:48;;;;;;;27.65;5.95;;;7.50;99.90;;;;;;4969410;28;20071;-75
2022/01/14 12:55:16;;;;;;;10.77;4.38;;;7.50;99.90;;;;;;4969433;28;20102;-75
2022/01/14 12:57:43;;;;;;;11.27;4.85;;;7.50;99.90;;;;;;4968993;28;20023;-73
2022/01/14 13:00:11;;;;;;;11.90;5.10;;;7.50;99.90;;;;;;4967956;29;20032;-73
2022/01/14 13:02:40;;;;;;;8.85;4.32;;;7.40;99.90;;;;;;4967452;29;20027;-77
2022/01/14 13:05:16;;;;;;;11.90;4.43;;;7.50;99.90;;;;;;4968625;28;20073;-74
2022/01/14 13:07:43;;;;;;;13.50;4.95;;;7.40;99.90;;;;;;4968763;28;20038;-76
2022/01/14 13:10:12;;;;;;;7.85;4.32;;;7.40;99.90;;;;;;4967422;29;20043;-75
2022/01/14 13:12:41;;;;;;;5.35;3.53;;;7.40;99.90;;;;;;4967601;29;20649;-76
2022/01/14 13:15:09;;;;;;;9.02;3.42;;;7.40;99.90;;;;;;4968696;28;20031;-75
2022/01/14 13:17:39;;;;;;;10.45;4.30;;;7.40;99.90;;;;;;4968791;28;20812;-74
2022/01/14 13:20:13;;;;;;;11.13;4.28;;;7.40;99.90;;;;;;4968836;28;20074;-75
2022/01/14 13:22:40;;;;;;;7.07;3.22;;;7.40;99.90;;;;;;4969094;28;20031;-75
2022/01/14 13:25:07;;;;;;;8.93;3.53;;;7.40;99.90;;;;;;4962013;28;20137;-77
2022/01/14 13:27:42;;;;;;;7.25;3.17;;;7.50;99.90;;;;;;4967579;28;20050;-75